createdAt,value
2018-06-21T00:01:17.472Z,6.07
2018-06-21T00:03:46.965Z,5.70
2018-06-21T00:06:15.897Z,5.60
2018-06-21T00:08:45.100Z,6.17
2018-06-21T00:11:14.019Z,6.00
2018-06-21T00:13:43.528Z,6.90
2018-06-21T00:16:12.631Z,5.97
2018-06-21T00:18:41.998Z,5.90
2018-06-21T00:21:10.898Z,5.27
2018-06-21T00:23:40.361Z,7.17
2018-06-21T00:26:09.813Z,6.97
2018-06-21T00:28:39.555Z,7.63
2018-06-21T00:31:08.782Z,5.87
2018-06-21T00:33:37.825Z,7.30
2018-06-21T00:36:07.043Z,5.77
2018-06-21T00:38:36.001Z,6.70
2018-06-21T00:41:04.950Z,7.23
2018-06-21T00:43:34.262Z,8.53
2018-06-21T00:46:03.479Z,7.40
2018-06-21T00:48:32.338Z,6.63
2018-06-21T00:51:01.716Z,7.27
2018-06-21T00:53:30.546Z,8.33
2018-06-21T00:56:10.750Z,8.07
2018-06-21T00:58:39.607Z,8.20
2018-06-21T01:01:09.045Z,8.50
2018-06-21T01:03:38.498Z,9.67
2018-06-21T01:06:07.336Z,9.10
2018-06-21T01:08:36.722Z,9.60
2018-06-21T01:11:05.657Z,9.83
2018-06-21T01:13:34.443Z,10.10
2018-06-21T01:16:04.069Z,10.00
2018-06-21T01:18:33.299Z,10.87
2018-06-21T01:21:02.050Z,11.60
2018-06-21T01:23:31.392Z,10.73
2018-06-21T01:26:00.564Z,10.00
2018-06-21T01:28:29.397Z,10.37
2018-06-21T01:30:58.786Z,10.50
2018-06-21T01:33:27.576Z,11.47
2018-06-21T01:35:56.678Z,10.73
2018-06-21T01:38:26.132Z,10.33
2018-06-21T01:40:55.359Z,11.53
2018-06-21T01:43:24.229Z,12.00
2018-06-21T01:45:53.962Z,12.10
2018-06-21T01:48:22.791Z,13.50
2018-06-21T01:50:51.579Z,14.23
2018-06-21T01:53:21.004Z,13.87
2018-06-21T01:55:50.191Z,14.83
2018-06-21T01:58:19.570Z,14.93
2018-06-21T02:00:48.423Z,15.93
2018-06-21T02:03:17.213Z,17.83
2018-06-21T02:05:46.716Z,19.33
2018-06-21T02:08:15.845Z,19.90
2018-06-21T02:10:45.397Z,18.33
2018-06-21T02:13:14.605Z,20.73
2018-06-21T02:15:43.462Z,19.27
2018-06-21T02:18:13.289Z,19.30
2018-06-21T02:20:42.336Z,17.80
2018-06-21T02:23:12.232Z,19.47
2018-06-21T02:25:41.341Z,18.60
2018-06-21T02:28:10.702Z,18.10
2018-06-21T02:30:40.312Z,18.03
2018-06-21T02:33:09.372Z,19.67
2018-06-21T02:35:38.405Z,17.77
2018-06-21T02:38:07.859Z,20.43
2018-06-21T02:40:37.518Z,18.67
2018-06-21T02:43:07.250Z,19.83
2018-06-21T02:45:36.915Z,18.47
2018-06-21T02:48:06.231Z,18.33
2018-06-21T02:50:35.384Z,18.23
2018-06-21T02:53:04.483Z,18.30
2018-06-21T02:55:33.783Z,18.40
2018-06-21T02:58:03.647Z,17.13
2018-06-21T03:00:33.361Z,15.93
2018-06-21T03:06:00.340Z,14.20
2018-06-21T03:08:36.501Z,13.70
2018-06-21T03:11:07.055Z,14.37
2018-06-21T03:13:36.956Z,14.13
2018-06-21T03:16:06.529Z,14.30
2018-06-21T03:18:35.987Z,12.70
2018-06-21T03:21:05.315Z,12.43
2018-06-21T03:23:34.949Z,11.30
2018-06-21T03:26:04.267Z,10.50
2018-06-21T03:28:33.716Z,10.40
2018-06-21T03:31:02.951Z,11.33
2018-06-21T03:33:31.952Z,11.70
2018-06-21T03:36:01.193Z,10.73
2018-06-21T03:38:30.617Z,8.80
2018-06-21T03:40:59.404Z,6.57
2018-06-21T03:43:28.944Z,7.40
2018-06-21T03:45:57.961Z,6.13
2018-06-21T03:48:26.776Z,6.83
2018-06-21T03:50:55.889Z,6.63
2018-06-21T03:53:24.670Z,6.30
2018-06-21T03:55:53.838Z,5.40
2018-06-21T03:58:22.965Z,5.03
2018-06-21T04:00:52.072Z,4.97
2018-06-21T04:03:21.294Z,5.00
2018-06-21T04:05:50.047Z,4.70
2018-06-21T04:08:19.239Z,5.80
2018-06-21T04:10:48.053Z,5.33
2018-06-21T04:13:17.364Z,4.27
2018-06-21T04:15:46.448Z,4.77
2018-06-21T04:18:15.552Z,3.50
2018-06-21T04:20:44.909Z,3.73
2018-06-21T04:23:13.722Z,4.33
2018-06-21T04:25:43.036Z,4.10
2018-06-21T04:28:11.842Z,3.17
2018-06-21T04:30:40.831Z,3.40
2018-06-21T04:33:09.864Z,3.00
2018-06-21T04:35:38.635Z,3.40
2018-06-21T04:38:07.511Z,3.67
2018-06-21T04:40:36.298Z,3.83
2018-06-21T04:43:05.368Z,4.00
2018-06-21T04:45:34.221Z,4.23
2018-06-21T04:48:03.251Z,4.53
2018-06-21T04:50:32.351Z,4.63
2018-06-21T04:53:01.767Z,3.30
2018-06-21T04:55:31.094Z,5.60
2018-06-21T04:58:00.297Z,5.23
2018-06-21T05:00:29.083Z,4.60
2018-06-21T05:02:58.404Z,4.47
2018-06-21T05:05:27.333Z,3.87
2018-06-21T05:07:56.438Z,4.10
2018-06-21T05:10:25.747Z,4.00
2018-06-21T05:12:54.628Z,4.00
2018-06-21T05:15:24.285Z,4.10
2018-06-21T05:17:53.469Z,3.93
2018-06-21T05:20:22.803Z,3.93
2018-06-21T05:22:52.272Z,3.57
2018-06-21T05:25:22.088Z,3.60
2018-06-21T05:27:51.016Z,3.97
2018-06-21T05:30:20.589Z,3.67
2018-06-21T05:32:49.946Z,3.67
2018-06-21T05:35:19.204Z,2.60
2018-06-21T05:37:48.642Z,3.33
2018-06-21T05:40:35.942Z,3.50
2018-06-21T05:43:05.512Z,3.37
2018-06-21T05:45:35.273Z,3.60
2018-06-21T05:48:05.640Z,2.97
2018-06-21T05:50:35.645Z,2.43
2018-06-21T05:53:05.257Z,3.00
2018-06-21T05:55:35.259Z,2.40
2018-06-21T05:58:05.608Z,1.77
2018-06-21T06:00:34.798Z,2.03
2018-06-21T06:03:05.170Z,2.13
2018-06-21T06:05:34.362Z,2.30
2018-06-21T06:08:04.537Z,3.30
2018-06-21T06:10:34.056Z,3.20
2018-06-21T06:13:03.561Z,1.60
2018-06-21T06:15:32.751Z,2.17
2018-06-21T06:18:02.815Z,2.37
2018-06-21T06:20:33.676Z,1.73
2018-06-21T06:23:03.964Z,1.90
2018-06-21T06:25:33.917Z,2.30
2018-06-21T06:28:05.037Z,2.10
2018-06-21T06:30:35.904Z,1.57
2018-06-21T06:33:05.388Z,1.70
2018-06-21T06:35:37.119Z,1.60
2018-06-21T06:38:08.378Z,1.60
2018-06-21T06:40:39.276Z,1.53
2018-06-21T06:43:09.087Z,1.67
2018-06-21T06:45:41.720Z,1.30
2018-06-21T06:48:17.577Z,1.80
2018-06-21T06:50:55.722Z,3.03
2018-06-21T06:53:32.160Z,1.73
2018-06-21T06:56:01.748Z,0.90
2018-06-21T06:58:35.949Z,1.97
2018-06-21T07:09:31.291Z,1.53
2018-06-21T07:24:31.423Z,1.03
2018-06-21T07:32:53.923Z,1.00
2018-06-21T07:35:26.147Z,1.17
2018-06-21T07:38:02.119Z,1.00
2018-06-21T07:40:37.570Z,2.27
2018-06-21T07:43:09.827Z,1.40
2018-06-21T07:45:52.904Z,1.63
2018-06-21T07:48:23.266Z,1.80
2018-06-21T07:50:52.442Z,1.43
2018-06-21T07:53:22.170Z,1.30
2018-06-21T07:55:52.638Z,2.00
2018-06-21T07:58:21.997Z,2.00
2018-06-21T08:00:50.778Z,2.03
2018-06-21T08:03:22.051Z,3.50
2018-06-21T08:05:51.644Z,2.30
2018-06-21T08:08:21.777Z,2.83
2018-06-21T08:10:50.886Z,2.13
2018-06-21T08:13:22.132Z,2.00
2018-06-21T08:15:54.904Z,2.80
2018-06-21T08:18:24.662Z,2.17
2018-06-21T08:20:54.096Z,2.40
2018-06-21T08:23:23.452Z,2.60
2018-06-21T08:25:53.377Z,2.10
2018-06-21T08:28:22.477Z,3.00
2018-06-21T08:30:51.585Z,2.27
2018-06-21T08:33:21.106Z,1.87
2018-06-21T08:35:50.775Z,1.17
2018-06-21T08:38:21.760Z,1.80
2018-06-21T08:41:02.700Z,2.07
2018-06-21T08:43:35.149Z,2.37
2018-06-21T08:46:04.540Z,2.67
2018-06-21T08:48:33.724Z,2.33
2018-06-21T08:51:03.334Z,2.80
2018-06-21T08:53:32.467Z,2.10
2018-06-21T08:56:02.582Z,2.53
2018-06-21T08:58:32.164Z,3.23
2018-06-21T09:01:01.469Z,3.00
2018-06-21T09:03:30.543Z,2.40
2018-06-21T09:06:00.060Z,3.00
2018-06-21T09:08:29.374Z,2.87
2018-06-21T09:10:58.334Z,2.70
2018-06-21T09:13:32.674Z,2.27
2018-06-21T09:16:03.103Z,2.60
2018-06-21T09:18:32.878Z,1.70
2018-06-21T09:21:02.764Z,2.07
2018-06-21T09:23:32.307Z,1.40
2018-06-21T09:26:01.924Z,1.27
2018-06-21T09:28:31.559Z,1.60
2018-06-21T09:31:00.636Z,1.97
2018-06-21T09:33:29.877Z,2.00
2018-06-21T09:35:59.570Z,1.57
2018-06-21T09:38:33.874Z,1.40
2018-06-21T09:41:08.267Z,1.77
2018-06-21T09:44:43.224Z,1.17
2018-06-21T09:47:17.463Z,1.80
2018-06-21T09:49:46.918Z,1.50
2018-06-21T09:52:16.366Z,1.40
2018-06-21T09:54:45.260Z,0.80
2018-06-21T09:57:14.691Z,2.30
2018-06-21T09:59:43.705Z,1.43
2018-06-21T10:02:13.027Z,1.07
2018-06-21T10:04:42.444Z,1.50
2018-06-21T10:07:12.061Z,1.27
2018-06-21T10:09:41.733Z,1.63
2018-06-21T10:12:10.738Z,1.17
2018-06-21T10:14:43.752Z,1.33
2018-06-21T10:17:14.569Z,1.30
2018-06-21T10:19:45.341Z,1.20
2018-06-21T10:22:15.491Z,1.27
2018-06-21T10:24:46.039Z,1.40
2018-06-21T10:27:17.799Z,0.90
2018-06-21T10:29:47.063Z,1.13
2018-06-21T10:32:16.519Z,1.33
2018-06-21T10:34:45.890Z,1.43
2018-06-21T10:37:14.757Z,0.70
2018-06-21T10:39:46.541Z,1.60
2018-06-21T10:42:23.991Z,1.43
2018-06-21T10:57:05.187Z,1.27
2018-06-21T10:59:37.473Z,1.20
2018-06-21T11:02:08.261Z,1.03
2018-06-21T11:04:41.395Z,1.20
2018-06-21T11:07:11.042Z,0.87
2018-06-21T11:09:40.440Z,1.13
2018-06-21T11:12:10.161Z,0.87
2018-06-21T11:14:40.657Z,1.27
2018-06-21T11:17:11.717Z,1.50
2018-06-21T11:19:40.766Z,1.20
2018-06-21T11:22:10.532Z,1.47
2018-06-21T11:24:39.765Z,1.17
2018-06-21T11:27:10.040Z,0.70
2018-06-21T11:29:39.192Z,0.80
2018-06-21T11:32:08.413Z,0.90
2018-06-21T11:34:41.643Z,0.90
2018-06-21T11:37:11.999Z,1.23
2018-06-21T11:39:41.682Z,1.43
2018-06-21T11:42:10.750Z,1.30
2018-06-21T11:44:39.921Z,1.37
2018-06-21T11:47:09.479Z,1.20
2018-06-21T11:49:38.598Z,1.13
2018-06-21T11:52:07.876Z,1.00
2018-06-21T11:54:37.745Z,0.90
2018-06-21T11:57:07.707Z,0.83
2018-06-21T11:59:37.048Z,1.30
2018-06-21T12:02:06.708Z,1.10
2018-06-21T12:04:36.384Z,0.80
2018-06-21T12:07:05.548Z,1.40
2018-06-21T12:09:35.054Z,0.90
2018-06-21T12:12:04.857Z,0.73
2018-06-21T12:14:34.020Z,0.80
2018-06-21T12:17:03.048Z,0.90
2018-06-21T12:19:32.611Z,0.90
2018-06-21T12:22:02.570Z,0.80
2018-06-21T12:24:31.856Z,0.80
2018-06-21T12:27:01.101Z,0.73
2018-06-21T12:29:30.262Z,0.70
2018-06-21T12:32:00.438Z,0.70
2018-06-21T12:34:29.390Z,1.00
2018-06-21T12:36:58.740Z,0.80
2018-06-21T12:39:27.473Z,1.20
2018-06-21T12:41:56.611Z,0.87
2018-06-21T12:44:25.802Z,0.83
2018-06-21T12:46:55.561Z,1.23
2018-06-21T12:49:24.739Z,1.10
2018-06-21T12:51:53.581Z,1.40
2018-06-21T12:54:23.013Z,0.70
2018-06-21T12:56:52.686Z,0.87
2018-06-21T12:59:22.084Z,1.23
2018-06-21T13:01:51.613Z,0.83
2018-06-21T13:04:20.753Z,0.60
2018-06-21T13:06:50.185Z,0.90
2018-06-21T13:10:32.902Z,0.67
2018-06-21T13:13:19.925Z,0.60
2018-06-21T13:15:49.505Z,0.70
2018-06-21T13:18:18.753Z,0.73
2018-06-21T13:20:47.678Z,1.00
2018-06-21T13:23:16.764Z,0.60
2018-06-21T13:25:45.757Z,0.77
2018-06-21T13:28:14.998Z,0.50
2018-06-21T13:30:43.806Z,0.73
2018-06-21T13:33:13.184Z,0.73
2018-06-21T13:35:42.319Z,1.83
2018-06-21T13:38:11.427Z,0.53
2018-06-21T13:40:41.039Z,0.70
2018-06-21T13:43:10.088Z,1.27
2018-06-21T13:45:38.965Z,0.90
2018-06-21T13:48:07.772Z,0.93
2018-06-21T13:50:37.543Z,0.90
2018-06-21T13:53:06.703Z,0.67
2018-06-21T13:55:35.581Z,0.70
2018-06-21T13:58:04.710Z,0.77
2018-06-21T14:00:33.890Z,0.80
2018-06-21T14:03:02.965Z,0.67
2018-06-21T14:05:31.849Z,0.87
2018-06-21T14:08:01.246Z,0.70
2018-06-21T14:10:30.561Z,0.60
2018-06-21T14:12:59.370Z,0.53
2018-06-21T14:15:28.152Z,0.80
2018-06-21T14:17:57.179Z,0.60
2018-06-21T14:20:26.030Z,1.07
2018-06-21T14:22:55.363Z,0.83
2018-06-21T14:25:24.178Z,0.50
2018-06-21T14:27:53.004Z,1.13
2018-06-21T14:30:22.058Z,0.60
2018-06-21T14:32:50.909Z,0.57
2018-06-21T14:35:20.224Z,1.73
2018-06-21T14:37:49.320Z,0.80
2018-06-21T14:40:18.079Z,0.80
2018-06-21T14:42:46.955Z,0.90
2018-06-21T14:45:16.368Z,0.50
2018-06-21T14:47:45.513Z,0.60
2018-06-21T14:50:14.591Z,0.70
2018-06-21T14:52:43.658Z,0.73
2018-06-21T14:55:12.983Z,1.03
2018-06-21T14:57:42.708Z,1.33
2018-06-21T15:00:12.370Z,1.20
2018-06-21T15:02:42.058Z,0.60
2018-06-21T15:05:11.883Z,0.50
2018-06-21T15:07:41.096Z,1.63
2018-06-21T15:10:09.907Z,0.80
2018-06-21T15:12:38.682Z,1.30
2018-06-21T15:15:07.887Z,0.63
2018-06-21T15:17:36.675Z,1.00
2018-06-21T15:20:05.461Z,1.33
2018-06-21T15:22:34.658Z,2.00
2018-06-21T15:25:04.364Z,1.27
2018-06-21T15:27:33.782Z,1.20
2018-06-21T15:30:02.621Z,1.00
2018-06-21T15:32:31.461Z,0.93
2018-06-21T15:35:00.692Z,0.90
2018-06-21T15:37:29.519Z,1.03
2018-06-21T15:39:59.230Z,1.00
2018-06-21T15:42:28.694Z,0.50
2018-06-21T15:44:58.170Z,1.57
2018-06-21T15:47:27.539Z,0.60
2018-06-21T15:49:56.372Z,0.80
2018-06-21T15:52:25.642Z,1.00
2018-06-21T15:54:54.733Z,1.00
2018-06-21T15:57:23.583Z,1.30
2018-06-21T15:59:52.393Z,1.07
2018-06-21T16:02:21.213Z,0.80
2018-06-21T16:04:50.045Z,1.20
2018-06-21T16:07:19.022Z,0.80
2018-06-21T16:09:48.098Z,2.13
2018-06-21T16:12:16.914Z,1.20
2018-06-21T16:14:46.113Z,1.10
2018-06-21T16:17:15.277Z,1.00
2018-06-21T16:19:44.380Z,1.20
2018-06-21T16:22:13.767Z,1.07
2018-06-21T16:24:42.582Z,0.90
2018-06-21T16:27:11.714Z,1.40
2018-06-21T16:29:41.289Z,1.10
2018-06-21T16:32:10.681Z,1.03
2018-06-21T16:34:39.504Z,0.73
2018-06-21T16:37:08.280Z,0.70
2018-06-21T16:39:37.405Z,0.73
2018-06-21T16:42:06.797Z,0.60
2018-06-21T16:44:35.617Z,0.70
2018-06-21T16:47:04.450Z,0.70
2018-06-21T16:49:33.963Z,1.07
2018-06-21T16:52:02.788Z,1.23
2018-06-21T16:54:31.837Z,1.23
2018-06-21T16:57:01.391Z,0.80
2018-06-21T16:59:30.463Z,1.17
2018-06-21T17:01:59.283Z,1.23
2018-06-21T17:04:28.504Z,1.37
2018-06-21T17:06:57.573Z,1.23
2018-06-21T17:09:27.153Z,2.17
2018-06-21T17:11:56.777Z,1.20
2018-06-21T17:14:26.243Z,0.90
2018-06-21T17:16:55.373Z,1.00
2018-06-21T17:19:24.795Z,1.13
2018-06-21T17:21:53.587Z,1.10
2018-06-21T17:24:22.530Z,1.10
2018-06-21T17:26:51.447Z,1.00
2018-06-21T17:29:20.523Z,1.07
2018-06-21T17:31:49.760Z,1.10
2018-06-21T17:34:20.019Z,0.67
2018-06-21T17:36:49.550Z,0.90
2018-06-21T17:39:18.936Z,1.23
2018-06-21T17:41:48.076Z,0.70
2018-06-21T17:44:17.722Z,0.97
2018-06-21T17:46:47.038Z,0.80
2018-06-21T17:49:16.274Z,1.00
2018-06-21T17:51:51.301Z,1.27
2018-06-21T17:54:21.079Z,0.83
2018-06-21T17:56:50.708Z,1.87
2018-06-21T17:59:19.879Z,1.43
2018-06-21T18:01:49.506Z,1.00
2018-06-21T18:04:19.410Z,1.00
2018-06-21T18:06:48.523Z,1.30
2018-06-21T18:09:17.681Z,1.37
2018-06-21T18:11:47.121Z,1.20
2018-06-21T18:14:16.302Z,1.40
2018-06-21T18:16:45.762Z,1.50
2018-06-21T18:19:15.375Z,1.10
2018-06-21T18:21:44.714Z,1.43
2018-06-21T18:24:13.889Z,1.20
2018-06-21T18:26:47.267Z,1.50
2018-06-21T18:29:33.842Z,1.00
2018-06-21T18:32:37.637Z,1.50
2018-06-21T18:48:16.455Z,1.30
2018-06-21T19:01:07.411Z,1.57
2018-06-21T19:04:15.701Z,1.53
2018-06-21T19:07:00.996Z,1.57
2018-06-21T19:21:28.609Z,2.20
2018-06-21T19:24:03.755Z,2.70
2018-06-21T19:26:37.846Z,2.90
2018-06-21T19:29:21.118Z,1.20
2018-06-21T19:31:58.009Z,2.00
2018-06-21T19:34:39.948Z,1.57
2018-06-21T19:37:20.790Z,1.10
2018-06-21T19:40:05.178Z,1.43
2018-06-21T19:54:43.691Z,1.60
2018-06-21T19:57:20.153Z,2.27
2018-06-21T20:01:16.034Z,2.13
2018-06-21T20:04:06.400Z,1.50
2018-06-21T20:07:00.396Z,1.80
2018-06-21T20:09:51.912Z,1.33
2018-06-21T20:12:42.703Z,3.90
2018-06-21T20:17:28.423Z,1.50
2018-06-21T20:20:02.668Z,1.13
2018-06-21T20:22:33.264Z,1.77
2018-06-21T20:25:05.605Z,0.80
2018-06-21T20:27:39.309Z,1.97
2018-06-21T20:30:14.131Z,1.60
2018-06-21T20:32:50.784Z,1.43
2018-06-21T20:35:30.919Z,1.23
2018-06-21T20:38:06.084Z,1.37
2018-06-21T20:41:02.771Z,1.70
2018-06-21T20:43:35.276Z,1.83
2018-06-21T20:46:07.865Z,0.90
2018-06-21T20:48:48.288Z,1.40
2018-06-21T20:54:49.816Z,0.80
2018-06-21T20:57:20.516Z,1.23
2018-06-21T21:39:54.974Z,1.47
2018-06-21T21:43:11.875Z,1.50
2018-06-21T21:49:21.559Z,1.30
2018-06-21T21:52:06.005Z,1.60
2018-06-21T21:54:41.143Z,1.80
2018-06-21T22:05:58.407Z,1.30
2018-06-21T22:10:19.272Z,1.73
2018-06-21T22:13:04.788Z,1.50
2018-06-21T22:24:06.841Z,1.70
2018-06-21T22:27:06.290Z,1.70
2018-06-21T22:57:45.624Z,1.17
2018-06-21T23:58:23.170Z,1.87
